Empire, Nevada
Current Conditions -  °F | °C
As of 1:53 AM on Sunday 26 Oct 2014 (Local Time) from KLOL Reporting Station
Clear Clear  
Wind Chill:   Ceiling: Unl
Heat Index:   Visibility: 10mi
Dew Point: -6°   Wind: 6mph
Humidity: 57%   Direction: 110°ESE
Pressure: 30.07"   Gusts: NA
Location:  40.58°N, 119.34°W
Report Text: KLOL 260853Z AUTO 11005KT 10SM CLR 02/M06 A3007 RMK AO2 SLP166 T00221056 53007
Loading
Personal Weather Stations






























Interactive Weather Map
Tropical Storm Tracking
New forecast layout! Learn more

10-Day Weather Forecast

Advertisements
Track Severe Weather on mobile